sensor_id;sensor_type;location;lat;lon;timestamp;temperature;humidity
31113;DHT22;17763;48.730;9.136;2023-04-01T00:01:02;7.20;99.90
31113;DHT22;17763;48.730;9.136;2023-04-01T00:03:31;7.20;99.90
31113;DHT22;17763;48.730;9.136;2023-04-01T00:05:59;7.30;99.90
31113;DHT22;17763;48.730;9.136;2023-04-01T00:08:28;7.30;99.90
31113;DHT22;17763;48.730;9.136;2023-04-01T00:10:54;7.30;99.90
31113;DHT22;17763;48.730;9.136;2023-04-01T00:13:22;7.40;99.90
31113;DHT22;17763;48.730;9.136;2023-04-01T00:15:48;7.40;99.90
31113;DHT22;17763;48.730;9.136;2023-04-01T00:18:14;7.40;99.90
31113;DHT22;17763;48.730;9.136;2023-04-01T00:20:48;7.40;99.90
31113;DHT22;17763;48.730;9.136;2023-04-01T00:23:14;7.40;99.90
31113;DHT22;17763;48.730;9.136;2023-04-01T00:25:40;7.40;99.90
31113;DHT22;17763;48.730;9.136;2023-04-01T00:28:06;7.40;99.90
31113;DHT22;17763;48.730;9.136;2023-04-01T00:30:32;7.40;99.90
31113;DHT22;17763;48.730;9.136;2023-04-01T00:32:59;7.40;99.90
31113;DHT22;17763;48.730;9.136;2023-04-01T00:35:27;7.40;99.90
31113;DHT22;17763;48.730;9.136;2023-04-01T00:37:54;7.40;99.90
31113;DHT22;17763;48.730;9.136;2023-04-01T00:40:29;7.30;99.90
31113;DHT22;17763;48.730;9.136;2023-04-01T00:42:58;7.40;99.90
31113;DHT22;17763;48.730;9.136;2023-04-01T00:47:53;7.50;99.90
31113;DHT22;17763;48.730;9.136;2023-04-01T00:50:22;7.50;99.90
31113;DHT22;17763;48.730;9.136;2023-04-01T00:52:50;7.50;99.90
31113;DHT22;17763;48.730;9.136;2023-04-01T00:55:16;7.60;99.90
31113;DHT22;17763;48.730;9.136;2023-04-01T00:57:48;7.60;99.90
31113;DHT22;17763;48.730;9.136;2023-04-01T01:00:16;7.60;99.90
31113;DHT22;17763;48.730;9.136;2023-04-01T01:02:44;7.70;99.90
31113;DHT22;17763;48.730;9.136;2023-04-01T01:05:14;7.70;99.90
31113;DHT22;17763;48.730;9.136;2023-04-01T01:10:24;7.70;99.90
31113;DHT22;17763;48.730;9.136;2023-04-01T01:13:16;7.70;99.90
31113;DHT22;17763;48.730;9.136;2023-04-01T01:18:57;7.70;99.90
31113;DHT22;17763;48.730;9.136;2023-04-01T01:21:46;7.70;99.90
31113;DHT22;17763;48.730;9.136;2023-04-01T01:27:04;7.70;99.90
31113;DHT22;17763;48.730;9.136;2023-04-01T01:37:45;7.80;99.90
31113;DHT22;17763;48.730;9.136;2023-04-01T01:40:13;7.70;99.90
31113;DHT22;17763;48.730;9.136;2023-04-01T01:42:44;7.80;99.90
31113;DHT22;17763;48.730;9.136;2023-04-01T01:45:12;7.80;99.90
31113;DHT22;17763;48.730;9.136;2023-04-01T01:47:40;7.80;99.90
31113;DHT22;17763;48.730;9.136;2023-04-01T01:50:07;7.70;99.90
31113;DHT22;17763;48.730;9.136;2023-04-01T01:52:33;7.70;99.90
31113;DHT22;17763;48.730;9.136;2023-04-01T01:55:02;7.80;99.90
31113;DHT22;17763;48.730;9.136;2023-04-01T01:57:36;7.70;99.90
31113;DHT22;17763;48.730;9.136;2023-04-01T02:00:07;7.70;99.90
31113;DHT22;17763;48.730;9.136;2023-04-01T02:02:40;7.70;99.90
31113;DHT22;17763;48.730;9.136;2023-04-01T02:05:09;7.70;99.90
31113;DHT22;17763;48.730;9.136;2023-04-01T02:07:37;7.70;99.90
31113;DHT22;17763;48.730;9.136;2023-04-01T02:10:05;7.70;99.90
31113;DHT22;17763;48.730;9.136;2023-04-01T02:12:33;7.70;99.90
31113;DHT22;17763;48.730;9.136;2023-04-01T02:15:06;7.60;99.90
31113;DHT22;17763;48.730;9.136;2023-04-01T02:17:34;7.60;99.90
31113;DHT22;17763;48.730;9.136;2023-04-01T02:20:16;7.60;99.90
31113;DHT22;17763;48.730;9.136;2023-04-01T02:22:49;7.50;99.90
31113;DHT22;17763;48.730;9.136;2023-04-01T02:25:27;7.50;99.90
31113;DHT22;17763;48.730;9.136;2023-04-01T02:27:55;7.50;99.90
31113;DHT22;17763;48.730;9.136;2023-04-01T02:30:22;7.50;99.90
31113;DHT22;17763;48.730;9.136;2023-04-01T02:32:48;7.40;99.90
31113;DHT22;17763;48.730;9.136;2023-04-01T02:35:16;7.40;99.90
31113;DHT22;17763;48.730;9.136;2023-04-01T02:37:45;7.40;99.90
31113;DHT22;17763;48.730;9.136;2023-04-01T02:40:15;7.40;99.90
31113;DHT22;17763;48.730;9.136;2023-04-01T02:42:42;7.40;99.90
31113;DHT22;17763;48.730;9.136;2023-04-01T02:45:08;7.30;99.90
31113;DHT22;17763;48.730;9.136;2023-04-01T02:47:34;7.30;99.90
31113;DHT22;17763;48.730;9.136;2023-04-01T02:50:00;7.30;99.90
31113;DHT22;17763;48.730;9.136;2023-04-01T02:52:26;7.30;99.90
31113;DHT22;17763;48.730;9.136;2023-04-01T02:54:53;7.30;99.90
31113;DHT22;17763;48.730;9.136;2023-04-01T02:57:19;7.30;99.90
31113;DHT22;17763;48.730;9.136;2023-04-01T02:59:45;7.30;99.90
31113;DHT22;17763;48.730;9.136;2023-04-01T03:02:14;7.30;99.90
31113;DHT22;17763;48.730;9.136;2023-04-01T03:04:42;7.20;99.90
31113;DHT22;17763;48.730;9.136;2023-04-01T03:07:08;7.20;99.90
31113;DHT22;17763;48.730;9.136;2023-04-01T03:09:37;7.20;99.90
31113;DHT22;17763;48.730;9.136;2023-04-01T03:12:04;7.20;99.90
31113;DHT22;17763;48.730;9.136;2023-04-01T03:14:30;7.20;99.90
31113;DHT22;17763;48.730;9.136;2023-04-01T03:16:56;7.20;99.90
31113;DHT22;17763;48.730;9.136;2023-04-01T03:19:21;7.20;99.90
31113;DHT22;17763;48.730;9.136;2023-04-01T03:21:47;7.20;99.90
31113;DHT22;17763;48.730;9.136;2023-04-01T03:24:13;7.20;99.90
31113;DHT22;17763;48.730;9.136;2023-04-01T03:26:38;7.20;99.90
31113;DHT22;17763;48.730;9.136;2023-04-01T03:29:05;7.20;99.90
31113;DHT22;17763;48.730;9.136;2023-04-01T03:31:30;7.20;99.90
31113;DHT22;17763;48.730;9.136;2023-04-01T03:33:56;7.20;99.90
31113;DHT22;17763;48.730;9.136;2023-04-01T03:36:24;7.20;99.90
31113;DHT22;17763;48.730;9.136;2023-04-01T03:38:50;7.20;99.90
31113;DHT22;17763;48.730;9.136;2023-04-01T03:41:18;7.20;99.90
31113;DHT22;17763;48.730;9.136;2023-04-01T03:43:44;7.20;99.90
31113;DHT22;17763;48.730;9.136;2023-04-01T03:46:10;7.30;99.90
31113;DHT22;17763;48.730;9.136;2023-04-01T03:48:36;7.20;99.90
31113;DHT22;17763;48.730;9.136;2023-04-01T03:51:06;7.30;99.90
31113;DHT22;17763;48.730;9.136;2023-04-01T03:53:37;7.20;99.90
31113;DHT22;17763;48.730;9.136;2023-04-01T03:56:07;7.20;99.90
31113;DHT22;17763;48.730;9.136;2023-04-01T03:58:33;7.10;99.90
31113;DHT22;17763;48.730;9.136;2023-04-01T04:00:58;7.00;99.90
31113;DHT22;17763;48.730;9.136;2023-04-01T04:03:24;7.00;99.90
31113;DHT22;17763;48.730;9.136;2023-04-01T04:05:50;7.00;99.90
31113;DHT22;17763;48.730;9.136;2023-04-01T04:08:16;6.90;99.90
31113;DHT22;17763;48.730;9.136;2023-04-01T04:10:42;6.80;99.90
31113;DHT22;17763;48.730;9.136;2023-04-01T04:13:10;6.80;99.90
31113;DHT22;17763;48.730;9.136;2023-04-01T04:15:38;6.80;99.90
31113;DHT22;17763;48.730;9.136;2023-04-01T04:18:06;6.70;99.90
31113;DHT22;17763;48.730;9.136;2023-04-01T04:20:34;6.70;99.90
31113;DHT22;17763;48.730;9.136;2023-04-01T04:23:02;6.80;99.90
31113;DHT22;17763;48.730;9.136;2023-04-01T04:25:28;6.70;99.90
31113;DHT22;17763;48.730;9.136;2023-04-01T04:27:54;6.70;99.90
31113;DHT22;17763;48.730;9.136;2023-04-01T04:30:21;6.70;99.90
31113;DHT22;17763;48.730;9.136;2023-04-01T04:32:47;6.50;99.90
31113;DHT22;17763;48.730;9.136;2023-04-01T04:35:12;6.60;99.90
31113;DHT22;17763;48.730;9.136;2023-04-01T04:37:38;6.60;99.90
31113;DHT22;17763;48.730;9.136;2023-04-01T04:40:04;6.60;99.90
31113;DHT22;17763;48.730;9.136;2023-04-01T04:42:30;6.60;99.90
31113;DHT22;17763;48.730;9.136;2023-04-01T04:44:58;6.60;99.90
31113;DHT22;17763;48.730;9.136;2023-04-01T04:47:26;6.60;99.90
31113;DHT22;17763;48.730;9.136;2023-04-01T04:49:52;6.60;99.90
31113;DHT22;17763;48.730;9.136;2023-04-01T04:52:18;6.60;99.90
31113;DHT22;17763;48.730;9.136;2023-04-01T04:54:43;6.60;99.90
31113;DHT22;17763;48.730;9.136;2023-04-01T04:57:11;6.60;99.90
31113;DHT22;17763;48.730;9.136;2023-04-01T04:59:39;6.60;99.90
31113;DHT22;17763;48.730;9.136;2023-04-01T05:02:05;6.60;99.90
31113;DHT22;17763;48.730;9.136;2023-04-01T05:04:35;6.60;99.90
31113;DHT22;17763;48.730;9.136;2023-04-01T05:07:01;6.60;99.90
31113;DHT22;17763;48.730;9.136;2023-04-01T05:09:27;6.70;99.90
31113;DHT22;17763;48.730;9.136;2023-04-01T05:11:52;6.80;99.90
31113;DHT22;17763;48.730;9.136;2023-04-01T05:14:20;6.70;99.90
31113;DHT22;17763;48.730;9.136;2023-04-01T05:16:46;6.80;99.90
31113;DHT22;17763;48.730;9.136;2023-04-01T05:19:12;6.80;99.90
31113;DHT22;17763;48.730;9.136;2023-04-01T05:21:37;6.80;99.90
31113;DHT22;17763;48.730;9.136;2023-04-01T05:24:03;6.80;99.90
31113;DHT22;17763;48.730;9.136;2023-04-01T05:26:35;6.80;99.90
31113;DHT22;17763;48.730;9.136;2023-04-01T05:29:02;6.90;99.90
31113;DHT22;17763;48.730;9.136;2023-04-01T05:31:28;6.90;99.90
31113;DHT22;17763;48.730;9.136;2023-04-01T05:33:54;6.90;99.90
31113;DHT22;17763;48.730;9.136;2023-04-01T05:36:20;6.90;99.90
31113;DHT22;17763;48.730;9.136;2023-04-01T05:38:46;7.00;99.90
31113;DHT22;17763;48.730;9.136;2023-04-01T05:41:13;7.10;99.90
31113;DHT22;17763;48.730;9.136;2023-04-01T05:43:39;7.10;99.90
31113;DHT22;17763;48.730;9.136;2023-04-01T05:46:05;7.20;99.90
31113;DHT22;17763;48.730;9.136;2023-04-01T05:48:33;7.20;99.90
31113;DHT22;17763;48.730;9.136;2023-04-01T05:51:03;7.20;99.90
31113;DHT22;17763;48.730;9.136;2023-04-01T05:53:29;7.20;99.90
31113;DHT22;17763;48.730;9.136;2023-04-01T05:55:54;7.20;99.90
31113;DHT22;17763;48.730;9.136;2023-04-01T05:58:20;7.30;99.90
31113;DHT22;17763;48.730;9.136;2023-04-01T06:00:46;7.30;99.90
31113;DHT22;17763;48.730;9.136;2023-04-01T06:03:11;7.40;99.90
31113;DHT22;17763;48.730;9.136;2023-04-01T06:05:40;7.50;99.90
31113;DHT22;17763;48.730;9.136;2023-04-01T06:08:15;7.50;99.90
31113;DHT22;17763;48.730;9.136;2023-04-01T06:36:21;8.10;99.90
31113;DHT22;17763;48.730;9.136;2023-04-01T06:52:44;8.30;99.90
31113;DHT22;17763;48.730;9.136;2023-04-01T06:57:50;8.30;99.90
31113;DHT22;17763;48.730;9.136;2023-04-01T07:00:29;8.30;99.90
31113;DHT22;17763;48.730;9.136;2023-04-01T07:03:05;8.30;99.90
31113;DHT22;17763;48.730;9.136;2023-04-01T07:05:35;8.30;99.90
31113;DHT22;17763;48.730;9.136;2023-04-01T07:08:12;8.40;99.90
31113;DHT22;17763;48.730;9.136;2023-04-01T07:10:53;8.30;99.90
31113;DHT22;17763;48.730;9.136;2023-04-01T07:13:47;8.40;99.90
31113;DHT22;17763;48.730;9.136;2023-04-01T07:25:17;8.60;99.90
31113;DHT22;17763;48.730;9.136;2023-04-01T07:27:44;8.60;99.90
31113;DHT22;17763;48.730;9.136;2023-04-01T07:33:05;8.60;99.90
31113;DHT22;17763;48.730;9.136;2023-04-01T07:44:06;8.50;99.90
31113;DHT22;17763;48.730;9.136;2023-04-01T07:49:30;8.60;99.90
31113;DHT22;17763;48.730;9.136;2023-04-01T07:52:10;8.60;99.90
31113;DHT22;17763;48.730;9.136;2023-04-01T07:54:59;8.60;99.90
31113;DHT22;17763;48.730;9.136;2023-04-01T08:03:16;9.00;99.90
31113;DHT22;17763;48.730;9.136;2023-04-01T08:06:27;9.00;99.90
31113;DHT22;17763;48.730;9.136;2023-04-01T08:14:10;9.10;99.90
31113;DHT22;17763;48.730;9.136;2023-04-01T08:17:01;9.00;99.90
31113;DHT22;17763;48.730;9.136;2023-04-01T08:19:43;9.10;99.90
31113;DHT22;17763;48.730;9.136;2023-04-01T08:22:37;9.00;99.90
31113;DHT22;17763;48.730;9.136;2023-04-01T08:25:09;9.00;99.90
31113;DHT22;17763;48.730;9.136;2023-04-01T08:27:39;9.00;99.90
31113;DHT22;17763;48.730;9.136;2023-04-01T08:30:21;9.00;99.90
31113;DHT22;17763;48.730;9.136;2023-04-01T08:32:58;9.00;99.90
31113;DHT22;17763;48.730;9.136;2023-04-01T08:35:32;9.00;99.90
31113;DHT22;17763;48.730;9.136;2023-04-01T08:38:12;8.90;99.90
31113;DHT22;17763;48.730;9.136;2023-04-01T09:05:32;8.20;99.90
31113;DHT22;17763;48.730;9.136;2023-04-01T09:19:41;8.70;99.90
31113;DHT22;17763;48.730;9.136;2023-04-01T09:25:32;9.00;99.90
31113;DHT22;17763;48.730;9.136;2023-04-01T09:39:03;9.50;99.90
31113;DHT22;17763;48.730;9.136;2023-04-01T10:22:00;9.30;99.90
31113;DHT22;17763;48.730;9.136;2023-04-01T10:28:19;9.40;99.90
31113;DHT22;17763;48.730;9.136;2023-04-01T10:44:26;10.30;99.90
31113;DHT22;17763;48.730;9.136;2023-04-01T10:47:23;10.30;99.90
31113;DHT22;17763;48.730;9.136;2023-04-01T11:33:45;10.40;99.90
31113;DHT22;17763;48.730;9.136;2023-04-01T11:44:24;10.30;99.90
31113;DHT22;17763;48.730;9.136;2023-04-01T11:50:14;10.30;99.90
31113;DHT22;17763;48.730;9.136;2023-04-01T12:01:19;10.10;99.90
31113;DHT22;17763;48.730;9.136;2023-04-01T12:09:57;9.70;99.90
31113;DHT22;17763;48.730;9.136;2023-04-01T12:15:44;9.90;99.90
31113;DHT22;17763;48.730;9.136;2023-04-01T12:38:03;10.00;99.90
31113;DHT22;17763;48.730;9.136;2023-04-01T12:51:36;10.70;99.90
31113;DHT22;17763;48.730;9.136;2023-04-01T12:57:31;10.50;99.90
31113;DHT22;17763;48.730;9.136;2023-04-01T13:17:28;10.50;99.90
31113;DHT22;17763;48.730;9.136;2023-04-01T13:31:33;10.30;99.90
31113;DHT22;17763;48.730;9.136;2023-04-01T13:34:32;10.20;99.90
31113;DHT22;17763;48.730;9.136;2023-04-01T13:42:40;10.20;99.90
31113;DHT22;17763;48.730;9.136;2023-04-01T13:45:32;10.00;99.90
31113;DHT22;17763;48.730;9.136;2023-04-01T13:48:18;10.00;99.90
31113;DHT22;17763;48.730;9.136;2023-04-01T13:50:53;10.10;99.90
31113;DHT22;17763;48.730;9.136;2023-04-01T13:53:39;10.20;99.90
31113;DHT22;17763;48.730;9.136;2023-04-01T14:10:21;10.60;99.90
31113;DHT22;17763;48.730;9.136;2023-04-01T14:13:14;10.50;99.90
31113;DHT22;17763;48.730;9.136;2023-04-01T14:16:02;10.50;99.90
31113;DHT22;17763;48.730;9.136;2023-04-01T14:21:40;10.40;99.90
31113;DHT22;17763;48.730;9.136;2023-04-01T14:51:38;10.00;99.90
31113;DHT22;17763;48.730;9.136;2023-04-01T14:54:30;10.00;99.90
31113;DHT22;17763;48.730;9.136;2023-04-01T14:57:20;10.00;99.90
31113;DHT22;17763;48.730;9.136;2023-04-01T15:00:41;10.00;99.90
31113;DHT22;17763;48.730;9.136;2023-04-01T15:02:59;10.00;99.90
31113;DHT22;17763;48.730;9.136;2023-04-01T15:05:55;10.10;99.90
31113;DHT22;17763;48.730;9.136;2023-04-01T15:08:52;10.10;99.90
31113;DHT22;17763;48.730;9.136;2023-04-01T15:23:13;9.90;99.90
31113;DHT22;17763;48.730;9.136;2023-04-01T15:28:56;10.00;99.90
31113;DHT22;17763;48.730;9.136;2023-04-01T15:58:17;9.90;99.90
31113;DHT22;17763;48.730;9.136;2023-04-01T16:01:12;9.90;99.90
31113;DHT22;17763;48.730;9.136;2023-04-01T16:03:57;9.90;99.90
31113;DHT22;17763;48.730;9.136;2023-04-01T16:06:38;9.90;99.90
31113;DHT22;17763;48.730;9.136;2023-04-01T16:12:07;9.70;99.90
31113;DHT22;17763;48.730;9.136;2023-04-01T16:20:34;9.40;99.90
31113;DHT22;17763;48.730;9.136;2023-04-01T16:28:36;9.30;99.90
31113;DHT22;17763;48.730;9.136;2023-04-01T16:31:23;9.30;99.90
31113;DHT22;17763;48.730;9.136;2023-04-01T16:33:57;9.40;99.90
31113;DHT22;17763;48.730;9.136;2023-04-01T16:41:41;9.50;99.90
31113;DHT22;17763;48.730;9.136;2023-04-01T16:44:23;9.40;99.90
31113;DHT22;17763;48.730;9.136;2023-04-01T16:46:58;9.50;99.90
31113;DHT22;17763;48.730;9.136;2023-04-01T16:49:46;9.50;99.90
31113;DHT22;17763;48.730;9.136;2023-04-01T16:52:29;9.50;99.90
31113;DHT22;17763;48.730;9.136;2023-04-01T16:54:58;9.50;99.90
31113;DHT22;17763;48.730;9.136;2023-04-01T16:57:36;9.50;99.90
31113;DHT22;17763;48.730;9.136;2023-04-01T17:00:27;9.50;99.90
31113;DHT22;17763;48.730;9.136;2023-04-01T17:02:58;9.50;99.90
31113;DHT22;17763;48.730;9.136;2023-04-01T17:11:56;9.50;99.90
31113;DHT22;17763;48.730;9.136;2023-04-01T17:14:14;9.40;99.90
31113;DHT22;17763;48.730;9.136;2023-04-01T17:19:56;9.40;99.90
31113;DHT22;17763;48.730;9.136;2023-04-01T17:22:50;9.40;99.90
31113;DHT22;17763;48.730;9.136;2023-04-01T17:25:27;9.40;99.90
31113;DHT22;17763;48.730;9.136;2023-04-01T17:30:46;9.40;99.90
31113;DHT22;17763;48.730;9.136;2023-04-01T17:33:22;9.40;99.90
31113;DHT22;17763;48.730;9.136;2023-04-01T17:44:08;9.30;99.90
31113;DHT22;17763;48.730;9.136;2023-04-01T17:52:39;9.30;99.90
31113;DHT22;17763;48.730;9.136;2023-04-01T17:58:19;9.20;99.90
31113;DHT22;17763;48.730;9.136;2023-04-01T18:03:43;9.20;99.90
31113;DHT22;17763;48.730;9.136;2023-04-01T18:06:21;9.10;99.90
31113;DHT22;17763;48.730;9.136;2023-04-01T18:12:04;9.00;99.90
31113;DHT22;17763;48.730;9.136;2023-04-01T18:20:35;8.90;99.90
31113;DHT22;17763;48.730;9.136;2023-04-01T18:25:48;8.80;99.90
31113;DHT22;17763;48.730;9.136;2023-04-01T18:36:36;8.40;99.90
31113;DHT22;17763;48.730;9.136;2023-04-01T18:39:32;8.40;99.90
31113;DHT22;17763;48.730;9.136;2023-04-01T18:42:14;8.20;99.90
31113;DHT22;17763;48.730;9.136;2023-04-01T18:47:45;8.00;99.90
31113;DHT22;17763;48.730;9.136;2023-04-01T18:53:34;7.90;99.90
31113;DHT22;17763;48.730;9.136;2023-04-01T18:56:15;7.90;99.90
31113;DHT22;17763;48.730;9.136;2023-04-01T18:59:04;7.80;99.90
31113;DHT22;17763;48.730;9.136;2023-04-01T19:01:42;7.80;99.90
31113;DHT22;17763;48.730;9.136;2023-04-01T19:04:39;7.70;99.90
31113;DHT22;17763;48.730;9.136;2023-04-01T19:15:48;7.50;99.90
31113;DHT22;17763;48.730;9.136;2023-04-01T19:21:07;7.50;99.90
31113;DHT22;17763;48.730;9.136;2023-04-01T19:26:14;7.40;99.90
31113;DHT22;17763;48.730;9.136;2023-04-01T19:31:17;7.40;99.90
31113;DHT22;17763;48.730;9.136;2023-04-01T19:36:50;7.40;99.90
31113;DHT22;17763;48.730;9.136;2023-04-01T19:48:09;7.40;99.90
31113;DHT22;17763;48.730;9.136;2023-04-01T19:50:57;7.40;99.90
31113;DHT22;17763;48.730;9.136;2023-04-01T19:53:39;7.40;99.90
31113;DHT22;17763;48.730;9.136;2023-04-01T19:58:41;7.40;99.90
31113;DHT22;17763;48.730;9.136;2023-04-01T20:01:17;7.40;99.90
31113;DHT22;17763;48.730;9.136;2023-04-01T20:06:31;7.40;99.90
31113;DHT22;17763;48.730;9.136;2023-04-01T20:14:55;7.50;99.90
31113;DHT22;17763;48.730;9.136;2023-04-01T20:17:42;7.40;99.90
31113;DHT22;17763;48.730;9.136;2023-04-01T20:27:49;7.40;99.90
31113;DHT22;17763;48.730;9.136;2023-04-01T20:36:11;7.40;99.90
31113;DHT22;17763;48.730;9.136;2023-04-01T20:46:58;7.60;99.90
31113;DHT22;17763;48.730;9.136;2023-04-01T21:03:00;7.60;99.90
31113;DHT22;17763;48.730;9.136;2023-04-01T21:08:40;7.60;99.90
31113;DHT22;17763;48.730;9.136;2023-04-01T21:14:05;7.50;99.90
31113;DHT22;17763;48.730;9.136;2023-04-01T21:16:50;7.50;99.90
31113;DHT22;17763;48.730;9.136;2023-04-01T21:48:37;7.50;99.90
31113;DHT22;17763;48.730;9.136;2023-04-01T22:12:10;7.40;99.90
31113;DHT22;17763;48.730;9.136;2023-04-01T22:28:46;7.40;99.90
31113;DHT22;17763;48.730;9.136;2023-04-01T22:31:18;7.40;99.90
31113;DHT22;17763;48.730;9.136;2023-04-01T22:33:54;7.40;99.90
31113;DHT22;17763;48.730;9.136;2023-04-01T22:47:50;7.40;99.90
31113;DHT22;17763;48.730;9.136;2023-04-01T22:53:07;7.40;99.90
31113;DHT22;17763;48.730;9.136;2023-04-01T22:55:41;7.40;99.90
31113;DHT22;17763;48.730;9.136;2023-04-01T22:58:17;7.30;99.90
31113;DHT22;17763;48.730;9.136;2023-04-01T23:00:50;7.30;99.90
31113;DHT22;17763;48.730;9.136;2023-04-01T23:03:36;7.30;99.90
31113;DHT22;17763;48.730;9.136;2023-04-01T23:06:04;7.20;99.90
31113;DHT22;17763;48.730;9.136;2023-04-01T23:22:04;7.00;99.90
31113;DHT22;17763;48.730;9.136;2023-04-01T23:24:47;7.00;99.90
31113;DHT22;17763;48.730;9.136;2023-04-01T23:27:33;7.10;99.90
31113;DHT22;17763;48.730;9.136;2023-04-01T23:30:04;7.00;99.90
31113;DHT22;17763;48.730;9.136;2023-04-01T23:32:32;7.00;99.90
31113;DHT22;17763;48.730;9.136;2023-04-01T23:35:11;7.00;99.90
31113;DHT22;17763;48.730;9.136;2023-04-01T23:37:41;7.00;99.90
31113;DHT22;17763;48.730;9.136;2023-04-01T23:40:12;7.00;99.90
31113;DHT22;17763;48.730;9.136;2023-04-01T23:42:43;7.00;99.90
31113;DHT22;17763;48.730;9.136;2023-04-01T23:45:15;7.00;99.90
31113;DHT22;17763;48.730;9.136;2023-04-01T23:47:48;7.00;99.90
31113;DHT22;17763;48.730;9.136;2023-04-01T23:50:22;7.00;99.90
31113;DHT22;17763;48.730;9.136;2023-04-01T23:52:53;7.00;99.90
31113;DHT22;17763;48.730;9.136;2023-04-01T23:55:42;7.00;99.90
